Symphony Classica — JG4838 — position and weather

sailwx.info

Track history (hours):
 
Tides and Currents Weather Stations Pressure Air Temp Water Temp Dewpoint Dewpoint Depression Visibility Wind Speed Wind Dir Waves Ship Positions

Symphony Classica

Last reported at 2018-Jan-21 06:59 UTC. Time now 2018-Jan-21 07:09 UTC.
Position N 35°39' E 139°46'.

Length 70 m; draft 2.5 m.

Type: Passenger vessel. MMSI: 431000425.

Date/timePositionNaut miles runAvg speedWind from/ knotsBaromVisibWave heightAir tempDewpointWater temp
2018-Jan-21 06:59N 35°39' E 139°46'0 0.0
2018-Jan-21 06:28N 35°39' E 139°46'0 0.0
2018-Jan-21 05:55N 35°39' E 139°46'0 0.0
2018-Jan-21 05:22N 35°39' E 139°46'0 0.0
2018-Jan-21 05:00N 35°39' E 139°46'1 1.5
2018-Jan-21 04:30N 35°38' E 139°46'4 8.7
2018-Jan-21 04:00N 35°34' E 139°49'2 4.7
2018-Jan-21 03:29N 35°37' E 139°49'3 7.0
2018-Jan-21 03:00N 35°38' E 139°46'1 1.0
2018-Jan-21 02:22N 35°39' E 139°46'0 0.0
2018-Jan-21 01:51N 35°39' E 139°46'0 0.0
2018-Jan-20 23:29N 35°39' E 139°46'0 0.0
2018-Jan-20 17:56N 35°39' E 139°46'0 0.0
2018-Jan-20 17:26N 35°39' E 139°46'0 0.0
2018-Jan-20 16:50N 35°39' E 139°46'0 0.0
2018-Jan-20 16:26N 35°39' E 139°46'0 0.0
2018-Jan-20 15:56N 35°39' E 139°46'0 0.0
2018-Jan-20 15:29N 35°39' E 139°46'0 0.0
2018-Jan-20 14:56N 35°39' E 139°46'0 0.0
2018-Jan-20 14:29N 35°39' E 139°46'0 0.0
2018-Jan-20 13:44N 35°39' E 139°46'0 0.0
2018-Jan-20 13:14N 35°39' E 139°46'0 0.0
2018-Jan-20 12:50N 35°39' E 139°46'0 0.0
2018-Jan-20 12:27N 35°39' E 139°46'1 2.2
2018-Jan-20 12:00N 35°38' E 139°46'4 7.9
2018-Jan-20 11:30N 35°35' E 139°48'3 6.1
2018-Jan-20 11:00N 35°36' E 139°52'4 7.2
2018-Jan-20 10:30N 35°36' E 139°47'3 6.9
2018-Jan-20 10:00N 35°39' E 139°46'0 0.0
2018-Jan-20 06:15N 35°39' E 139°46'0 0.0
2018-Jan-20 05:50N 35°39' E 139°46'0 0.0
2018-Jan-20 04:53N 35°39' E 139°46'1 2.6
2018-Jan-20 04:29N 35°38' E 139°46'5 9.8
2018-Jan-20 04:00N 35°34' E 139°49'3 5.2
2018-Jan-20 03:29N 35°37' E 139°49'3 7.1
2018-Jan-20 03:00N 35°38' E 139°46'1 0.1
2018-Jan-19 16:44N 35°39' E 139°46'0 0.0
2018-Jan-19 16:17N 35°39' E 139°46'0 0.0
2018-Jan-19 14:56N 35°39' E 139°46'0 0.0
2018-Jan-19 06:26N 35°39' E 139°46'0 0.0
2018-Jan-19 05:50N 35°39' E 139°46'0 0.0
2018-Jan-19 04:44N 35°39' E 139°46'0 0.0
2018-Jan-19 04:26N 35°39' E 139°46'0 0.0
2018-Jan-19 01:56N 35°39' E 139°46'0 0.0
2018-Jan-19 01:20N 35°39' E 139°46'0 0.0
2018-Jan-19 00:56N 35°39' E 139°46'0 0.0
2018-Jan-18 18:14N 35°39' E 139°46'0 0.0
2018-Jan-18 17:47N 35°39' E 139°46'0 0.0
2018-Jan-18 17:23N 35°39' E 139°46'0 0.0
2018-Jan-18 16:44N 35°39' E 139°46'0 0.0
2018-Jan-18 16:26N 35°39' E 139°46'0 0.0
2018-Jan-18 15:56N 35°39' E 139°46'0 0.0
2018-Jan-18 15:20N 35°39' E 139°46'0 0.0
2018-Jan-18 14:59N 35°39' E 139°46'0 0.0
2018-Jan-18 13:56N 35°39' E 139°46'0 0.0
2018-Jan-18 13:20N 35°39' E 139°46'0 0.0
2018-Jan-18 12:56N 35°39' E 139°46'0 0.0
2018-Jan-18 11:50N 35°39' E 139°46'0 0.0
2018-Jan-18 06:14N 35°39' E 139°46'0 0.0
2018-Jan-18 04:17N 35°39' E 139°46'0 0.0
2018-Jan-18 03:59N 35°39' E 139°46'0 0.0
2018-Jan-18 03:26N 35°39' E 139°46'0 0.0
2018-Jan-18 02:56N 35°39' E 139°46'0 0.0
2018-Jan-18 02:26N 35°39' E 139°46'0 0.0
2018-Jan-18 01:50N 35°39' E 139°46'0 0.0
2018-Jan-18 01:26N 35°39' E 139°46'0 0.0
2018-Jan-18 00:50N 35°39' E 139°46'  
2018-Jan-12 14:57N 35°00' E 138°30'0 0.0
2018-Jan-12 14:30N 35°00' E 138°30'0 0.0
2018-Jan-12 14:00N 35°00' E 138°30'0 0.0
2018-Jan-12 13:30N 35°00' E 138°30'0 0.0
2018-Jan-12 13:00N 35°00' E 138°30'0 0.0
2018-Jan-12 12:30N 35°00' E 138°30'0 0.0
2018-Jan-12 12:00N 35°00' E 138°30'0 0.0
2018-Jan-12 11:30N 35°00' E 138°30'0 0.0
2018-Jan-12 11:00N 35°00' E 138°30'0 0.0
2018-Jan-12 10:27N 35°00' E 138°30'0 0.0
2018-Jan-12 10:00N 35°00' E 138°30'0 0.0
2018-Jan-12 09:30N 35°00' E 138°30'0 0.0
2018-Jan-12 09:00N 35°00' E 138°30'0 0.0
2018-Jan-12 08:30N 35°00' E 138°30'0 0.0
2018-Jan-12 08:00N 35°00' E 138°30'0 0.0
2018-Jan-12 07:30N 35°00' E 138°30'0 0.0
2018-Jan-12 07:00N 35°00' E 138°30'0 0.0
2018-Jan-12 06:30N 35°00' E 138°30'0 0.0
2018-Jan-12 06:00N 35°00' E 138°30'0 0.0
2018-Jan-12 05:30N 35°00' E 138°30'0 0.0
2018-Jan-12 05:00N 35°00' E 138°30'0 0.0
2018-Jan-12 04:30N 35°00' E 138°30'0 0.0
2018-Jan-12 03:57N 35°00' E 138°30'0 0.0
2018-Jan-12 03:30N 35°00' E 138°30'0 0.0
2018-Jan-12 02:57N 35°00' E 138°30'0 0.0
2018-Jan-12 02:30N 35°00' E 138°30'0 0.0
2018-Jan-12 02:00N 35°00' E 138°30'0 0.0
2018-Jan-12 01:30N 35°00' E 138°30'0 0.0
2018-Jan-12 01:00N 35°00' E 138°30'0 0.0
2018-Jan-12 00:30N 35°00' E 138°30'0 0.0
2018-Jan-12 00:00N 35°00' E 138°30'0 0.0
2018-Jan-11 23:30N 35°00' E 138°30'0 0.0
2018-Jan-11 23:00N 35°00' E 138°30'0 0.0
2018-Jan-11 22:30N 35°00' E 138°30'0 0.0
2018-Jan-11 22:00N 35°00' E 138°30'0 0.0
2018-Jan-11 21:30N 35°00' E 138°30'0 0.0
2018-Jan-11 21:00N 35°00' E 138°30'0 0.0
2018-Jan-11 20:30N 35°00' E 138°30'0 0.0
2018-Jan-11 19:54N 35°00' E 138°30'0 0.0
2018-Jan-11 19:30N 35°00' E 138°30'0 0.0
2018-Jan-11 19:00N 35°00' E 138°30'0 0.0
2018-Jan-11 18:30N 35°00' E 138°30'0 0.0
2018-Jan-11 18:00N 35°00' E 138°30'0 0.0
2018-Jan-11 17:30N 35°00' E 138°30'0 0.0
2018-Jan-11 17:00N 35°00' E 138°30'0 0.0
2018-Jan-11 16:30N 35°00' E 138°30'0 0.0
2018-Jan-11 16:00N 35°00' E 138°30'0 0.0
2018-Jan-11 15:30N 35°00' E 138°30'0 0.0
2018-Jan-11 15:00N 35°00' E 138°30'0 0.0
2018-Jan-11 14:27N 35°00' E 138°30'0 0.0
2018-Jan-11 13:57N 35°00' E 138°30'0 0.0
2018-Jan-11 13:30N 35°00' E 138°30'0 0.0
2018-Jan-11 12:57N 35°00' E 138°30'0 0.0
2018-Jan-11 12:30N 35°00' E 138°30'0 0.0
2018-Jan-11 12:00N 35°00' E 138°30'0 0.0
2018-Jan-11 11:27N 35°00' E 138°30'0 0.0
2018-Jan-11 10:57N 35°00' E 138°30'0 0.0
2018-Jan-11 10:30N 35°00' E 138°30'0 0.0
2018-Jan-11 10:00N 35°00' E 138°30'0 0.0
2018-Jan-11 09:30N 35°00' E 138°30'0 0.0
2018-Jan-11 09:00N 35°00' E 138°30'0 0.0
2018-Jan-11 08:30N 35°00' E 138°30'0 0.0
2018-Jan-11 08:00N 35°00' E 138°30'0 0.0
2018-Jan-11 07:30N 35°00' E 138°30'  
Track history (hours):
 
Tides and Currents Weather Stations Pressure Air Temp Water Temp Dewpoint Dewpoint Depression Visibility Wind Speed Wind Dir Waves Ship Positions

Symphony Classica

Last reported at 2018-Jan-21 06:59 UTC. Time now 2018-Jan-21 07:09 UTC.
Position N 35°39' E 139°46'.

Length 70 m; draft 2.5 m.

Type: Passenger vessel. MMSI: 431000425.

Date/timePositionNaut miles runAvg speedWind from/ knotsBaromVisibWave heightAir tempDewpointWater temp
2018-Jan-21 06:59N 35°39' E 139°46'0 0.0
2018-Jan-21 06:28N 35°39' E 139°46'0 0.0
2018-Jan-21 05:55N 35°39' E 139°46'0 0.0
2018-Jan-21 05:22N 35°39' E 139°46'0 0.0
2018-Jan-21 05:00N 35°39' E 139°46'1 1.5
2018-Jan-21 04:30N 35°38' E 139°46'4 8.7
2018-Jan-21 04:00N 35°34' E 139°49'2 4.7
2018-Jan-21 03:29N 35°37' E 139°49'3 7.0
2018-Jan-21 03:00N 35°38' E 139°46'1 1.0
2018-Jan-21 02:22N 35°39' E 139°46'0 0.0
2018-Jan-21 01:51N 35°39' E 139°46'0 0.0
2018-Jan-20 23:29N 35°39' E 139°46'0 0.0
2018-Jan-20 17:56N 35°39' E 139°46'0 0.0
2018-Jan-20 17:26N 35°39' E 139°46'0 0.0
2018-Jan-20 16:50N 35°39' E 139°46'0 0.0
2018-Jan-20 16:26N 35°39' E 139°46'0 0.0
2018-Jan-20 15:56N 35°39' E 139°46'0 0.0
2018-Jan-20 15:29N 35°39' E 139°46'0 0.0
2018-Jan-20 14:56N 35°39' E 139°46'0 0.0
2018-Jan-20 14:29N 35°39' E 139°46'0 0.0
2018-Jan-20 13:44N 35°39' E 139°46'0 0.0
2018-Jan-20 13:14N 35°39' E 139°46'0 0.0
2018-Jan-20 12:50N 35°39' E 139°46'0 0.0
2018-Jan-20 12:27N 35°39' E 139°46'1 2.2
2018-Jan-20 12:00N 35°38' E 139°46'4 7.9
2018-Jan-20 11:30N 35°35' E 139°48'3 6.1
2018-Jan-20 11:00N 35°36' E 139°52'4 7.2
2018-Jan-20 10:30N 35°36' E 139°47'3 6.9
2018-Jan-20 10:00N 35°39' E 139°46'0 0.0
2018-Jan-20 06:15N 35°39' E 139°46'0 0.0
2018-Jan-20 05:50N 35°39' E 139°46'0 0.0
2018-Jan-20 04:53N 35°39' E 139°46'1 2.6
2018-Jan-20 04:29N 35°38' E 139°46'5 9.8
2018-Jan-20 04:00N 35°34' E 139°49'3 5.2
2018-Jan-20 03:29N 35°37' E 139°49'3 7.1
2018-Jan-20 03:00N 35°38' E 139°46'1 0.1
2018-Jan-19 16:44N 35°39' E 139°46'0 0.0
2018-Jan-19 16:17N 35°39' E 139°46'0 0.0
2018-Jan-19 14:56N 35°39' E 139°46'0 0.0
2018-Jan-19 06:26N 35°39' E 139°46'0 0.0
2018-Jan-19 05:50N 35°39' E 139°46'0 0.0
2018-Jan-19 04:44N 35°39' E 139°46'0 0.0
2018-Jan-19 04:26N 35°39' E 139°46'0 0.0
2018-Jan-19 01:56N 35°39' E 139°46'0 0.0
2018-Jan-19 01:20N 35°39' E 139°46'0 0.0
2018-Jan-19 00:56N 35°39' E 139°46'0 0.0
2018-Jan-18 18:14N 35°39' E 139°46'0 0.0
2018-Jan-18 17:47N 35°39' E 139°46'0 0.0
2018-Jan-18 17:23N 35°39' E 139°46'0 0.0
2018-Jan-18 16:44N 35°39' E 139°46'0 0.0
2018-Jan-18 16:26N 35°39' E 139°46'0 0.0
2018-Jan-18 15:56N 35°39' E 139°46'0 0.0
2018-Jan-18 15:20N 35°39' E 139°46'0 0.0
2018-Jan-18 14:59N 35°39' E 139°46'0 0.0
2018-Jan-18 13:56N 35°39' E 139°46'0 0.0
2018-Jan-18 13:20N 35°39' E 139°46'0 0.0
2018-Jan-18 12:56N 35°39' E 139°46'0 0.0
2018-Jan-18 11:50N 35°39' E 139°46'0 0.0
2018-Jan-18 06:14N 35°39' E 139°46'0 0.0
2018-Jan-18 04:17N 35°39' E 139°46'0 0.0
2018-Jan-18 03:59N 35°39' E 139°46'0 0.0
2018-Jan-18 03:26N 35°39' E 139°46'0 0.0
2018-Jan-18 02:56N 35°39' E 139°46'0 0.0
2018-Jan-18 02:26N 35°39' E 139°46'0 0.0
2018-Jan-18 01:50N 35°39' E 139°46'0 0.0
2018-Jan-18 01:26N 35°39' E 139°46'0 0.0
2018-Jan-18 00:50N 35°39' E 139°46'  
2018-Jan-12 14:57N 35°00' E 138°30'0 0.0
2018-Jan-12 14:30N 35°00' E 138°30'0 0.0
2018-Jan-12 14:00N 35°00' E 138°30'0 0.0
2018-Jan-12 13:30N 35°00' E 138°30'0 0.0
2018-Jan-12 13:00N 35°00' E 138°30'0 0.0
2018-Jan-12 12:30N 35°00' E 138°30'0 0.0
2018-Jan-12 12:00N 35°00' E 138°30'0 0.0
2018-Jan-12 11:30N 35°00' E 138°30'0 0.0
2018-Jan-12 11:00N 35°00' E 138°30'0 0.0
2018-Jan-12 10:27N 35°00' E 138°30'0 0.0
2018-Jan-12 10:00N 35°00' E 138°30'0 0.0
2018-Jan-12 09:30N 35°00' E 138°30'0 0.0
2018-Jan-12 09:00N 35°00' E 138°30'0 0.0
2018-Jan-12 08:30N 35°00' E 138°30'0 0.0
2018-Jan-12 08:00N 35°00' E 138°30'0 0.0
2018-Jan-12 07:30N 35°00' E 138°30'0 0.0
2018-Jan-12 07:00N 35°00' E 138°30'0 0.0
2018-Jan-12 06:30N 35°00' E 138°30'0 0.0
2018-Jan-12 06:00N 35°00' E 138°30'0 0.0
2018-Jan-12 05:30N 35°00' E 138°30'0 0.0
2018-Jan-12 05:00N 35°00' E 138°30'0 0.0
2018-Jan-12 04:30N 35°00' E 138°30'0 0.0
2018-Jan-12 03:57N 35°00' E 138°30'0 0.0
2018-Jan-12 03:30N 35°00' E 138°30'0 0.0
2018-Jan-12 02:57N 35°00' E 138°30'0 0.0
2018-Jan-12 02:30N 35°00' E 138°30'0 0.0
2018-Jan-12 02:00N 35°00' E 138°30'0 0.0
2018-Jan-12 01:30N 35°00' E 138°30'0 0.0
2018-Jan-12 01:00N 35°00' E 138°30'0 0.0
2018-Jan-12 00:30N 35°00' E 138°30'0 0.0
2018-Jan-12 00:00N 35°00' E 138°30'0 0.0
2018-Jan-11 23:30N 35°00' E 138°30'0 0.0
2018-Jan-11 23:00N 35°00' E 138°30'0 0.0
2018-Jan-11 22:30N 35°00' E 138°30'0 0.0
2018-Jan-11 22:00N 35°00' E 138°30'0 0.0
2018-Jan-11 21:30N 35°00' E 138°30'0 0.0
2018-Jan-11 21:00N 35°00' E 138°30'0 0.0
2018-Jan-11 20:30N 35°00' E 138°30'0 0.0
2018-Jan-11 19:54N 35°00' E 138°30'0 0.0
2018-Jan-11 19:30N 35°00' E 138°30'0 0.0
2018-Jan-11 19:00N 35°00' E 138°30'0 0.0
2018-Jan-11 18:30N 35°00' E 138°30'0 0.0
2018-Jan-11 18:00N 35°00' E 138°30'0 0.0
2018-Jan-11 17:30N 35°00' E 138°30'0 0.0
2018-Jan-11 17:00N 35°00' E 138°30'0 0.0
2018-Jan-11 16:30N 35°00' E 138°30'0 0.0
2018-Jan-11 16:00N 35°00' E 138°30'0 0.0
2018-Jan-11 15:30N 35°00' E 138°30'0 0.0
2018-Jan-11 15:00N 35°00' E 138°30'0 0.0
2018-Jan-11 14:27N 35°00' E 138°30'0 0.0
2018-Jan-11 13:57N 35°00' E 138°30'0 0.0
2018-Jan-11 13:30N 35°00' E 138°30'0 0.0
2018-Jan-11 12:57N 35°00' E 138°30'0 0.0
2018-Jan-11 12:30N 35°00' E 138°30'0 0.0
2018-Jan-11 12:00N 35°00' E 138°30'0 0.0
2018-Jan-11 11:27N 35°00' E 138°30'0 0.0
2018-Jan-11 10:57N 35°00' E 138°30'0 0.0
2018-Jan-11 10:30N 35°00' E 138°30'0 0.0
2018-Jan-11 10:00N 35°00' E 138°30'0 0.0
2018-Jan-11 09:30N 35°00' E 138°30'0 0.0
2018-Jan-11 09:00N 35°00' E 138°30'0 0.0
2018-Jan-11 08:30N 35°00' E 138°30'0 0.0
2018-Jan-11 08:00N 35°00' E 138°30'0 0.0
2018-Jan-11 07:30N 35°00' E 138°30'  

Dump ship's entire track history